sensor_id;sensor_type;location;lat;lon;timestamp;pressure;altitude;pressure_sealevel;temperature;humidity
69780;BME280;57052;55.602;38.096;2022-08-01T00:01:51;100547.34;;;18.98;49.37
69780;BME280;57052;55.602;38.096;2022-08-01T00:04:16;100545.06;;;18.91;49.48
69780;BME280;57052;55.602;38.096;2022-08-01T00:06:42;100549.25;;;18.89;49.61
69780;BME280;57052;55.602;38.096;2022-08-01T00:09:08;100554.75;;;18.89;49.73
69780;BME280;57052;55.602;38.096;2022-08-01T00:11:33;100550.50;;;18.83;49.88
69780;BME280;57052;55.602;38.096;2022-08-01T00:13:59;100541.13;;;18.75;49.95
69780;BME280;57052;55.602;38.096;2022-08-01T00:16:24;100547.28;;;18.81;50.15
69780;BME280;57052;55.602;38.096;2022-08-01T00:18:51;100554.50;;;18.77;50.09
69780;BME280;57052;55.602;38.096;2022-08-01T00:21:17;100546.41;;;18.72;50.29
69780;BME280;57052;55.602;38.096;2022-08-01T00:23:43;100548.66;;;18.70;50.28
69780;BME280;57052;55.602;38.096;2022-08-01T00:26:11;100544.63;;;18.67;50.52
69780;BME280;57052;55.602;38.096;2022-08-01T00:28:37;100545.25;;;18.64;50.75
69780;BME280;57052;55.602;38.096;2022-08-01T00:31:03;100544.75;;;18.62;50.83
69780;BME280;57052;55.602;38.096;2022-08-01T00:33:28;100544.28;;;18.60;50.58
69780;BME280;57052;55.602;38.096;2022-08-01T00:35:54;100541.84;;;18.59;50.82
69780;BME280;57052;55.602;38.096;2022-08-01T00:38:20;100541.66;;;18.55;50.91
69780;BME280;57052;55.602;38.096;2022-08-01T00:40:46;100540.56;;;18.56;51.16
69780;BME280;57052;55.602;38.096;2022-08-01T00:43:11;100540.03;;;18.54;50.80
69780;BME280;57052;55.602;38.096;2022-08-01T00:45:37;100539.75;;;18.55;50.71
69780;BME280;57052;55.602;38.096;2022-08-01T00:48:03;100538.09;;;18.54;50.77
69780;BME280;57052;55.602;38.096;2022-08-01T00:50:29;100529.19;;;18.49;50.87
69780;BME280;57052;55.602;38.096;2022-08-01T00:52:55;100538.72;;;18.51;51.37
69780;BME280;57052;55.602;38.096;2022-08-01T00:55:21;100533.38;;;18.46;51.03
69780;BME280;57052;55.602;38.096;2022-08-01T00:57:47;100544.16;;;18.43;50.97
69780;BME280;57052;55.602;38.096;2022-08-01T01:00:14;100547.38;;;18.45;50.91
69780;BME280;57052;55.602;38.096;2022-08-01T01:02:39;100545.25;;;18.42;51.13
69780;BME280;57052;55.602;38.096;2022-08-01T01:05:05;100543.97;;;18.39;51.32
69780;BME280;57052;55.602;38.096;2022-08-01T01:10:05;100547.78;;;18.30;52.07
69780;BME280;57052;55.602;38.096;2022-08-01T01:15:08;100537.69;;;18.17;51.91
69780;BME280;57052;55.602;38.096;2022-08-01T01:20:13;100549.78;;;18.16;51.75
69780;BME280;57052;55.602;38.096;2022-08-01T01:28:34;100547.72;;;17.99;52.94
69780;BME280;57052;55.602;38.096;2022-08-01T01:31:01;100538.50;;;17.95;51.78
69780;BME280;57052;55.602;38.096;2022-08-01T01:33:29;100548.25;;;18.01;52.01
69780;BME280;57052;55.602;38.096;2022-08-01T01:36:04;100534.47;;;17.92;52.75
69780;BME280;57052;55.602;38.096;2022-08-01T01:38:37;100532.34;;;17.89;52.93
69780;BME280;57052;55.602;38.096;2022-08-01T01:41:08;100545.09;;;17.94;52.05
69780;BME280;57052;55.602;38.096;2022-08-01T01:43:36;100530.84;;;17.83;51.99
69780;BME280;57052;55.602;38.096;2022-08-01T01:46:03;100534.72;;;17.82;52.01
69780;BME280;57052;55.602;38.096;2022-08-01T01:48:31;100553.75;;;17.87;52.31
69780;BME280;57052;55.602;38.096;2022-08-01T01:50:58;100543.13;;;17.86;52.45
69780;BME280;57052;55.602;38.096;2022-08-01T01:53:26;100543.41;;;17.84;52.70
69780;BME280;57052;55.602;38.096;2022-08-01T01:55:53;100545.88;;;17.86;52.40
69780;BME280;57052;55.602;38.096;2022-08-01T01:58:22;100553.56;;;17.84;52.74
69780;BME280;57052;55.602;38.096;2022-08-01T02:00:49;100547.28;;;17.83;52.74
69780;BME280;57052;55.602;38.096;2022-08-01T02:03:18;100548.06;;;17.84;53.32
69780;BME280;57052;55.602;38.096;2022-08-01T02:05:44;100560.16;;;17.83;52.77
69780;BME280;57052;55.602;38.096;2022-08-01T02:08:11;100546.47;;;17.83;52.93
69780;BME280;57052;55.602;38.096;2022-08-01T02:10:40;100550.44;;;17.77;53.04
69780;BME280;57052;55.602;38.096;2022-08-01T02:13:06;100555.31;;;17.80;53.12
69780;BME280;57052;55.602;38.096;2022-08-01T02:15:36;100531.34;;;17.63;53.98
69780;BME280;57052;55.602;38.096;2022-08-01T02:18:06;100550.16;;;17.78;53.29
69780;BME280;57052;55.602;38.096;2022-08-01T02:20:34;100550.16;;;17.78;53.42
69780;BME280;57052;55.602;38.096;2022-08-01T02:23:08;100536.88;;;17.72;54.19
69780;BME280;57052;55.602;38.096;2022-08-01T02:25:55;100542.66;;;17.70;54.93
69780;BME280;57052;55.602;38.096;2022-08-01T02:28:25;100550.75;;;17.75;54.06
69780;BME280;57052;55.602;38.096;2022-08-01T02:30:57;100542.84;;;17.74;53.87
69780;BME280;57052;55.602;38.096;2022-08-01T02:33:28;100543.66;;;17.74;53.83
69780;BME280;57052;55.602;38.096;2022-08-01T02:35:58;100544.78;;;17.73;53.77
69780;BME280;57052;55.602;38.096;2022-08-01T02:38:28;100539.81;;;17.75;53.64
69780;BME280;57052;55.602;38.096;2022-08-01T02:40:59;100544.16;;;17.76;53.69
69780;BME280;57052;55.602;38.096;2022-08-01T02:43:30;100550.75;;;17.75;54.17
69780;BME280;57052;55.602;38.096;2022-08-01T02:46:01;100536.38;;;17.70;53.73
69780;BME280;57052;55.602;38.096;2022-08-01T02:48:30;100547.19;;;17.75;54.14
69780;BME280;57052;55.602;38.096;2022-08-01T02:51:01;100540.91;;;17.74;53.79
69780;BME280;57052;55.602;38.096;2022-08-01T02:53:32;100542.53;;;17.75;54.06
69780;BME280;57052;55.602;38.096;2022-08-01T02:56:03;100539.09;;;17.70;53.88
69780;BME280;57052;55.602;38.096;2022-08-01T02:58:30;100539.59;;;17.72;53.62
69780;BME280;57052;55.602;38.096;2022-08-01T03:00:57;100538.50;;;17.73;53.48
69780;BME280;57052;55.602;38.096;2022-08-01T03:03:24;100547.19;;;17.75;53.61
69780;BME280;57052;55.602;38.096;2022-08-01T03:05:50;100553.88;;;17.82;53.44
69780;BME280;57052;55.602;38.096;2022-08-01T03:08:17;100550.81;;;17.84;53.66
69780;BME280;57052;55.602;38.096;2022-08-01T03:10:45;100555.19;;;17.85;53.54
69780;BME280;57052;55.602;38.096;2022-08-01T03:13:13;100555.38;;;17.88;53.79
69780;BME280;57052;55.602;38.096;2022-08-01T03:15:42;100561.34;;;17.90;53.72
69780;BME280;57052;55.602;38.096;2022-08-01T03:18:09;100536.34;;;17.83;53.50
69780;BME280;57052;55.602;38.096;2022-08-01T03:20:36;100528.72;;;17.80;53.52
69780;BME280;57052;55.602;38.096;2022-08-01T03:23:05;100554.50;;;18.02;53.66
69780;BME280;57052;55.602;38.096;2022-08-01T03:25:33;100561.63;;;18.03;53.77
69780;BME280;57052;55.602;38.096;2022-08-01T03:28:02;100560.69;;;18.07;53.51
69780;BME280;57052;55.602;38.096;2022-08-01T03:30:29;100552.94;;;18.09;53.20
69780;BME280;57052;55.602;38.096;2022-08-01T03:32:56;100554.25;;;18.12;53.40
69780;BME280;57052;55.602;38.096;2022-08-01T03:35:26;100558.63;;;18.13;54.20
69780;BME280;57052;55.602;38.096;2022-08-01T03:37:55;100544.59;;;18.14;53.48
69780;BME280;57052;55.602;38.096;2022-08-01T03:40:25;100548.53;;;18.22;53.74
69780;BME280;57052;55.602;38.096;2022-08-01T03:43:00;100549.00;;;18.24;54.08
69780;BME280;57052;55.602;38.096;2022-08-01T03:45:33;100557.09;;;18.29;53.73
69780;BME280;57052;55.602;38.096;2022-08-01T03:48:02;100552.94;;;18.31;53.38
69780;BME280;57052;55.602;38.096;2022-08-01T03:50:29;100555.25;;;18.38;53.34
69780;BME280;57052;55.602;38.096;2022-08-01T03:53:00;100543.34;;;18.42;53.29
69780;BME280;57052;55.602;38.096;2022-08-01T03:55:28;100528.78;;;18.33;53.46
69780;BME280;57052;55.602;38.096;2022-08-01T03:57:55;100533.09;;;18.48;53.27
69780;BME280;57052;55.602;38.096;2022-08-01T04:00:22;100538.31;;;18.58;53.05
69780;BME280;57052;55.602;38.096;2022-08-01T04:02:50;100527.97;;;18.55;53.05
69780;BME280;57052;55.602;38.096;2022-08-01T04:05:17;100526.72;;;18.61;53.36
69780;BME280;57052;55.602;38.096;2022-08-01T04:07:50;100539.81;;;18.73;53.62
69780;BME280;57052;55.602;38.096;2022-08-01T04:10:22;100540.16;;;18.80;52.87
69780;BME280;57052;55.602;38.096;2022-08-01T04:12:48;100535.34;;;18.85;53.03
69780;BME280;57052;55.602;38.096;2022-08-01T04:15:14;100537.97;;;18.90;52.99
69780;BME280;57052;55.602;38.096;2022-08-01T04:17:39;100537.19;;;18.98;52.84
69780;BME280;57052;55.602;38.096;2022-08-01T04:20:05;100543.00;;;19.05;52.80
69780;BME280;57052;55.602;38.096;2022-08-01T04:22:31;100524.63;;;19.06;52.55
69780;BME280;57052;55.602;38.096;2022-08-01T04:24:58;100532.84;;;19.14;52.06
69780;BME280;57052;55.602;38.096;2022-08-01T04:27:36;100547.44;;;19.24;52.24
69780;BME280;57052;55.602;38.096;2022-08-01T04:30:03;100540.84;;;19.33;51.79
69780;BME280;57052;55.602;38.096;2022-08-01T04:32:33;100544.75;;;19.41;51.85
69780;BME280;57052;55.602;38.096;2022-08-01T04:35:02;100542.34;;;19.48;51.83
69780;BME280;57052;55.602;38.096;2022-08-01T04:37:30;100534.56;;;19.50;51.40
69780;BME280;57052;55.602;38.096;2022-08-01T04:39:57;100535.09;;;19.60;51.19
69780;BME280;57052;55.602;38.096;2022-08-01T04:42:24;100539.78;;;19.68;51.07
69780;BME280;57052;55.602;38.096;2022-08-01T04:44:50;100547.53;;;19.75;50.86
69780;BME280;57052;55.602;38.096;2022-08-01T04:47:16;100545.44;;;19.80;50.77
69780;BME280;57052;55.602;38.096;2022-08-01T04:49:43;100529.44;;;19.82;50.48
69780;BME280;57052;55.602;38.096;2022-08-01T04:52:11;100546.25;;;19.98;50.16
69780;BME280;57052;55.602;38.096;2022-08-01T04:54:37;100545.44;;;20.06;49.80
69780;BME280;57052;55.602;38.096;2022-08-01T04:57:05;100544.94;;;20.13;49.50
69780;BME280;57052;55.602;38.096;2022-08-01T04:59:32;100543.31;;;20.20;49.45
69780;BME280;57052;55.602;38.096;2022-08-01T05:04:39;100551.88;;;20.36;49.02
69780;BME280;57052;55.602;38.096;2022-08-01T05:07:06;100545.06;;;20.42;48.63
69780;BME280;57052;55.602;38.096;2022-08-01T05:09:32;100540.66;;;20.50;48.48
69780;BME280;57052;55.602;38.096;2022-08-01T05:12:03;100546.50;;;20.57;48.69
69780;BME280;57052;55.602;38.096;2022-08-01T05:14:29;100548.88;;;20.67;48.05
69780;BME280;57052;55.602;38.096;2022-08-01T05:17:03;100545.47;;;20.70;47.56
69780;BME280;57052;55.602;38.096;2022-08-01T05:19:30;100532.50;;;20.79;47.45
69780;BME280;57052;55.602;38.096;2022-08-01T05:22:00;100544.91;;;20.93;47.16
69780;BME280;57052;55.602;38.096;2022-08-01T05:24:36;100541.97;;;20.98;46.61
69780;BME280;57052;55.602;38.096;2022-08-01T05:27:02;100546.66;;;21.06;46.83
69780;BME280;57052;55.602;38.096;2022-08-01T05:29:28;100540.97;;;21.12;46.33
69780;BME280;57052;55.602;38.096;2022-08-01T05:31:54;100545.13;;;21.18;45.92
69780;BME280;57052;55.602;38.096;2022-08-01T05:34:20;100546.88;;;21.22;45.59
69780;BME280;57052;55.602;38.096;2022-08-01T05:36:46;100546.03;;;21.30;45.34
69780;BME280;57052;55.602;38.096;2022-08-01T05:39:12;100532.72;;;21.32;45.08
69780;BME280;57052;55.602;38.096;2022-08-01T05:41:38;100536.84;;;21.47;45.02
69780;BME280;57052;55.602;38.096;2022-08-01T05:44:05;100535.16;;;21.54;44.87
69780;BME280;57052;55.602;38.096;2022-08-01T05:46:31;100539.00;;;21.62;44.96
69780;BME280;57052;55.602;38.096;2022-08-01T05:48:58;100540.75;;;21.66;44.54
69780;BME280;57052;55.602;38.096;2022-08-01T05:51:24;100529.03;;;21.69;44.54
69780;BME280;57052;55.602;38.096;2022-08-01T05:53:50;100540.47;;;21.80;44.18
69780;BME280;57052;55.602;38.096;2022-08-01T05:56:16;100536.72;;;21.85;43.72
69780;BME280;57052;55.602;38.096;2022-08-01T05:58:41;100534.13;;;21.88;43.46
69780;BME280;57052;55.602;38.096;2022-08-01T06:01:07;100509.84;;;21.82;43.44
69780;BME280;57052;55.602;38.096;2022-08-01T06:03:33;100536.63;;;22.02;43.71
69780;BME280;57052;55.602;38.096;2022-08-01T06:06:02;100527.31;;;22.06;42.43
69780;BME280;57052;55.602;38.096;2022-08-01T06:08:28;100536.19;;;22.12;43.09
69780;BME280;57052;55.602;38.096;2022-08-01T06:10:54;100531.81;;;22.11;42.53
69780;BME280;57052;55.602;38.096;2022-08-01T06:13:19;100537.25;;;22.19;42.50
69780;BME280;57052;55.602;38.096;2022-08-01T06:15:46;100539.44;;;22.26;42.75
69780;BME280;57052;55.602;38.096;2022-08-01T06:18:12;100543.63;;;22.32;42.56
69780;BME280;57052;55.602;38.096;2022-08-01T06:20:37;100526.25;;;22.31;42.29
69780;BME280;57052;55.602;38.096;2022-08-01T06:23:03;100534.44;;;22.40;42.54
69780;BME280;57052;55.602;38.096;2022-08-01T06:25:29;100541.59;;;22.53;42.59
69780;BME280;57052;55.602;38.096;2022-08-01T06:27:54;100539.56;;;22.62;42.50
69780;BME280;57052;55.602;38.096;2022-08-01T06:30:20;100545.66;;;22.68;42.45
69780;BME280;57052;55.602;38.096;2022-08-01T06:32:46;100552.59;;;22.74;42.42
69780;BME280;57052;55.602;38.096;2022-08-01T06:35:13;100550.41;;;22.79;42.71
69780;BME280;57052;55.602;38.096;2022-08-01T06:37:38;100500.66;;;22.55;42.26
69780;BME280;57052;55.602;38.096;2022-08-01T06:40:06;100546.84;;;22.91;42.37
69780;BME280;57052;55.602;38.096;2022-08-01T06:42:33;100541.09;;;22.96;42.28
69780;BME280;57052;55.602;38.096;2022-08-01T06:45:05;100551.94;;;23.01;41.99
69780;BME280;57052;55.602;38.096;2022-08-01T06:47:31;100552.97;;;23.09;41.72
69780;BME280;57052;55.602;38.096;2022-08-01T06:49:57;100546.84;;;23.15;41.40
69780;BME280;57052;55.602;38.096;2022-08-01T06:52:23;100542.34;;;23.23;41.50
69780;BME280;57052;55.602;38.096;2022-08-01T06:54:48;100544.06;;;23.27;40.97
69780;BME280;57052;55.602;38.096;2022-08-01T06:57:14;100546.28;;;23.34;41.28
69780;BME280;57052;55.602;38.096;2022-08-01T06:59:40;100550.44;;;23.40;41.52
69780;BME280;57052;55.602;38.096;2022-08-01T07:02:05;100553.44;;;23.47;41.11
69780;BME280;57052;55.602;38.096;2022-08-01T07:04:31;100547.31;;;23.53;40.86
69780;BME280;57052;55.602;38.096;2022-08-01T07:06:57;100550.28;;;23.60;40.31
69780;BME280;57052;55.602;38.096;2022-08-01T07:09:23;100549.72;;;23.67;40.00
69780;BME280;57052;55.602;38.096;2022-08-01T07:11:49;100540.69;;;23.70;39.99
69780;BME280;57052;55.602;38.096;2022-08-01T07:14:16;100547.84;;;23.71;39.41
69780;BME280;57052;55.602;38.096;2022-08-01T07:16:41;100547.25;;;23.78;39.81
69780;BME280;57052;55.602;38.096;2022-08-01T07:19:07;100553.69;;;23.82;39.50
69780;BME280;57052;55.602;38.096;2022-08-01T07:21:33;100550.13;;;23.81;39.02
69780;BME280;57052;55.602;38.096;2022-08-01T07:24:00;100557.03;;;23.87;38.87
69780;BME280;57052;55.602;38.096;2022-08-01T07:26:26;100547.69;;;23.92;38.93
69780;BME280;57052;55.602;38.096;2022-08-01T07:28:52;100553.28;;;23.95;38.77
69780;BME280;57052;55.602;38.096;2022-08-01T07:31:18;100544.56;;;23.93;38.25
69780;BME280;57052;55.602;38.096;2022-08-01T07:33:44;100544.75;;;24.00;38.44
69780;BME280;57052;55.602;38.096;2022-08-01T07:36:10;100541.72;;;24.05;38.33
69780;BME280;57052;55.602;38.096;2022-08-01T07:38:36;100545.09;;;24.11;38.15
69780;BME280;57052;55.602;38.096;2022-08-01T07:41:01;100544.03;;;24.15;37.96
69780;BME280;57052;55.602;38.096;2022-08-01T07:43:28;100544.94;;;24.19;37.78
69780;BME280;57052;55.602;38.096;2022-08-01T07:45:53;100541.00;;;24.20;37.99
69780;BME280;57052;55.602;38.096;2022-08-01T07:48:19;100541.69;;;24.30;38.04
69780;BME280;57052;55.602;38.096;2022-08-01T07:50:50;100537.84;;;24.34;37.85
69780;BME280;57052;55.602;38.096;2022-08-01T07:53:15;100543.72;;;24.33;37.34
69780;BME280;57052;55.602;38.096;2022-08-01T07:55:41;100529.44;;;24.31;37.34
69780;BME280;57052;55.602;38.096;2022-08-01T07:58:07;100539.66;;;24.42;37.29
69780;BME280;57052;55.602;38.096;2022-08-01T08:00:33;100544.56;;;24.49;37.27
69780;BME280;57052;55.602;38.096;2022-08-01T08:02:58;100540.16;;;24.48;36.84
69780;BME280;57052;55.602;38.096;2022-08-01T08:05:25;100540.81;;;24.57;36.95
69780;BME280;57052;55.602;38.096;2022-08-01T08:07:51;100540.56;;;24.62;36.71
69780;BME280;57052;55.602;38.096;2022-08-01T08:10:16;100544.66;;;24.68;36.56
69780;BME280;57052;55.602;38.096;2022-08-01T08:12:42;100535.75;;;24.74;36.84
69780;BME280;57052;55.602;38.096;2022-08-01T08:15:08;100535.16;;;24.81;36.75
69780;BME280;57052;55.602;38.096;2022-08-01T08:17:34;100518.09;;;24.79;36.99
69780;BME280;57052;55.602;38.096;2022-08-01T08:20:01;100522.44;;;24.96;36.82
69780;BME280;57052;55.602;38.096;2022-08-01T08:22:28;100526.63;;;25.05;37.13
69780;BME280;57052;55.602;38.096;2022-08-01T08:24:54;100528.06;;;25.15;37.35
69780;BME280;57052;55.602;38.096;2022-08-01T08:27:20;100531.00;;;25.22;37.15
69780;BME280;57052;55.602;38.096;2022-08-01T08:29:45;100536.72;;;25.29;36.95
69780;BME280;57052;55.602;38.096;2022-08-01T08:32:11;100528.84;;;25.31;36.46
69780;BME280;57052;55.602;38.096;2022-08-01T08:34:37;100517.69;;;25.27;36.61
69780;BME280;57052;55.602;38.096;2022-08-01T08:37:03;100520.25;;;25.20;36.02
69780;BME280;57052;55.602;38.096;2022-08-01T08:39:28;100526.06;;;25.31;36.18
69780;BME280;57052;55.602;38.096;2022-08-01T08:41:58;100518.13;;;25.29;35.43
69780;BME280;57052;55.602;38.096;2022-08-01T08:44:24;100513.19;;;25.23;35.59
69780;BME280;57052;55.602;38.096;2022-08-01T08:46:51;100502.94;;;25.23;35.69
69780;BME280;57052;55.602;38.096;2022-08-01T08:49:20;100509.09;;;25.32;35.06
69780;BME280;57052;55.602;38.096;2022-08-01T08:51:50;100515.13;;;25.38;35.35
69780;BME280;57052;55.602;38.096;2022-08-01T08:54:21;100515.66;;;25.43;35.29
69780;BME280;57052;55.602;38.096;2022-08-01T08:56:53;100513.88;;;25.51;35.20
69780;BME280;57052;55.602;38.096;2022-08-01T08:59:19;100512.34;;;25.54;34.86
69780;BME280;57052;55.602;38.096;2022-08-01T09:01:45;100517.31;;;25.64;35.06
69780;BME280;57052;55.602;38.096;2022-08-01T09:04:11;100499.97;;;25.67;34.71
69780;BME280;57052;55.602;38.096;2022-08-01T09:06:37;100506.09;;;25.76;34.89
69780;BME280;57052;55.602;38.096;2022-08-01T09:09:03;100502.44;;;25.91;34.35
69780;BME280;57052;55.602;38.096;2022-08-01T09:11:29;100499.81;;;25.98;34.00
69780;BME280;57052;55.602;38.096;2022-08-01T09:14:10;100499.75;;;26.14;33.37
69780;BME280;57052;55.602;38.096;2022-08-01T09:16:39;100501.59;;;26.25;33.99
69780;BME280;57052;55.602;38.096;2022-08-01T09:19:19;100490.53;;;26.29;32.97
69780;BME280;57052;55.602;38.096;2022-08-01T09:21:59;100500.00;;;26.47;32.68
69780;BME280;57052;55.602;38.096;2022-08-01T09:24:26;100492.34;;;26.63;33.77
69780;BME280;57052;55.602;38.096;2022-08-01T09:26:53;100484.91;;;26.70;32.82
69780;BME280;57052;55.602;38.096;2022-08-01T09:29:23;100495.56;;;26.88;31.14
69780;BME280;57052;55.602;38.096;2022-08-01T09:31:49;100490.97;;;26.99;32.53
69780;BME280;57052;55.602;38.096;2022-08-01T09:34:16;100480.44;;;27.11;32.00
69780;BME280;57052;55.602;38.096;2022-08-01T09:36:50;100481.91;;;27.28;31.75
69780;BME280;57052;55.602;38.096;2022-08-01T09:39:18;100481.72;;;27.44;31.30
69780;BME280;57052;55.602;38.096;2022-08-01T09:41:45;100484.78;;;27.65;31.98
69780;BME280;57052;55.602;38.096;2022-08-01T09:44:11;100474.69;;;27.83;31.78
69780;BME280;57052;55.602;38.096;2022-08-01T09:46:52;100481.16;;;27.94;30.01
69780;BME280;57052;55.602;38.096;2022-08-01T09:49:28;100485.28;;;28.04;29.98
69780;BME280;57052;55.602;38.096;2022-08-01T09:51:53;100471.00;;;28.05;30.06
69780;BME280;57052;55.602;38.096;2022-08-01T09:54:33;100479.72;;;28.04;27.12
69780;BME280;57052;55.602;38.096;2022-08-01T09:57:17;100479.75;;;28.07;27.86
69780;BME280;57052;55.602;38.096;2022-08-01T09:59:44;100466.66;;;28.08;28.90
69780;BME280;57052;55.602;38.096;2022-08-01T10:02:11;100469.22;;;28.23;29.61
69780;BME280;57052;55.602;38.096;2022-08-01T10:04:50;100467.78;;;28.40;28.69
69780;BME280;57052;55.602;38.096;2022-08-01T10:07:17;100468.28;;;28.52;29.47
69780;BME280;57052;55.602;38.096;2022-08-01T10:09:44;100464.06;;;28.66;29.35
69780;BME280;57052;55.602;38.096;2022-08-01T10:12:12;100455.00;;;28.76;29.57
69780;BME280;57052;55.602;38.096;2022-08-01T10:14:38;100465.78;;;28.81;29.45
69780;BME280;57052;55.602;38.096;2022-08-01T10:17:08;100461.44;;;28.87;28.53
69780;BME280;57052;55.602;38.096;2022-08-01T10:19:36;100457.94;;;29.04;28.69
69780;BME280;57052;55.602;38.096;2022-08-01T10:22:07;100456.84;;;29.15;28.45
69780;BME280;57052;55.602;38.096;2022-08-01T10:24:36;100455.78;;;29.31;26.61
69780;BME280;57052;55.602;38.096;2022-08-01T10:27:04;100459.44;;;29.49;27.27
69780;BME280;57052;55.602;38.096;2022-08-01T10:29:42;100459.56;;;29.73;26.71
69780;BME280;57052;55.602;38.096;2022-08-01T10:32:11;100459.28;;;30.03;27.31
69780;BME280;57052;55.602;38.096;2022-08-01T10:34:37;100445.34;;;30.24;26.62
69780;BME280;57052;55.602;38.096;2022-08-01T10:37:06;100452.59;;;30.39;25.09
69780;BME280;57052;55.602;38.096;2022-08-01T10:39:33;100445.00;;;30.58;26.26
69780;BME280;57052;55.602;38.096;2022-08-01T10:42:00;100454.59;;;30.81;25.90
69780;BME280;57052;55.602;38.096;2022-08-01T10:44:28;100455.38;;;31.10;25.34
69780;BME280;57052;55.602;38.096;2022-08-01T10:46:59;100454.13;;;31.36;24.72
69780;BME280;57052;55.602;38.096;2022-08-01T10:49:29;100444.47;;;31.61;24.84
69780;BME280;57052;55.602;38.096;2022-08-01T10:51:56;100439.97;;;31.78;24.92
69780;BME280;57052;55.602;38.096;2022-08-01T10:54:24;100435.44;;;32.02;24.27
69780;BME280;57052;55.602;38.096;2022-08-01T10:56:51;100448.22;;;32.10;24.30
69780;BME280;57052;55.602;38.096;2022-08-01T10:59:26;100445.09;;;31.94;22.89
69780;BME280;57052;55.602;38.096;2022-08-01T11:01:57;100440.75;;;31.82;23.54
69780;BME280;57052;55.602;38.096;2022-08-01T11:07:06;100433.22;;;31.65;22.78
69780;BME280;57052;55.602;38.096;2022-08-01T11:09:40;100432.09;;;31.55;22.16
69780;BME280;57052;55.602;38.096;2022-08-01T11:12:17;100443.28;;;31.55;23.58
69780;BME280;57052;55.602;38.096;2022-08-01T11:17:34;100429.69;;;31.54;23.84
69780;BME280;57052;55.602;38.096;2022-08-01T11:20:07;100430.50;;;31.51;23.68
69780;BME280;57052;55.602;38.096;2022-08-01T11:30:48;100429.28;;;31.55;23.84
69780;BME280;57052;55.602;38.096;2022-08-01T11:33:15;100430.50;;;31.47;24.12
69780;BME280;57052;55.602;38.096;2022-08-01T11:38:36;100430.53;;;31.30;24.58
69780;BME280;57052;55.602;38.096;2022-08-01T11:41:13;100430.56;;;31.19;24.25
69780;BME280;57052;55.602;38.096;2022-08-01T11:44:17;100427.81;;;31.08;24.28
69780;BME280;57052;55.602;38.096;2022-08-01T11:46:56;100422.63;;;31.00;24.59
69780;BME280;57052;55.602;38.096;2022-08-01T11:51:59;100419.84;;;30.82;25.03
69780;BME280;57052;55.602;38.096;2022-08-01T11:54:27;100420.25;;;30.74;25.41
69780;BME280;57052;55.602;38.096;2022-08-01T11:56:58;100417.44;;;30.67;25.05
69780;BME280;57052;55.602;38.096;2022-08-01T11:59:25;100412.69;;;30.64;25.59
69780;BME280;57052;55.602;38.096;2022-08-01T12:01:52;100407.47;;;30.62;25.80
69780;BME280;57052;55.602;38.096;2022-08-01T12:04:18;100400.28;;;30.72;26.10
69780;BME280;57052;55.602;38.096;2022-08-01T12:06:44;100400.66;;;30.84;25.62
69780;BME280;57052;55.602;38.096;2022-08-01T12:09:21;100396.63;;;31.06;25.10
69780;BME280;57052;55.602;38.096;2022-08-01T12:11:48;100389.34;;;31.41;25.09
69780;BME280;57052;55.602;38.096;2022-08-01T12:14:20;100392.06;;;31.65;23.30
69780;BME280;57052;55.602;38.096;2022-08-01T12:16:51;100383.97;;;31.78;23.47
69780;BME280;57052;55.602;38.096;2022-08-01T12:19:22;100382.69;;;31.93;23.62
69780;BME280;57052;55.602;38.096;2022-08-01T12:22:21;100391.81;;;32.08;23.54
69780;BME280;57052;55.602;38.096;2022-08-01T12:24:47;100382.09;;;32.23;23.87
69780;BME280;57052;55.602;38.096;2022-08-01T12:27:24;100394.91;;;32.24;23.68
69780;BME280;57052;55.602;38.096;2022-08-01T12:29:49;100391.69;;;32.22;23.99
69780;BME280;57052;55.602;38.096;2022-08-01T12:34:48;100381.00;;;32.10;24.10
69780;BME280;57052;55.602;38.096;2022-08-01T12:37:14;100386.22;;;32.04;23.98
69780;BME280;57052;55.602;38.096;2022-08-01T12:39:41;100386.28;;;31.94;24.13
69780;BME280;57052;55.602;38.096;2022-08-01T12:42:08;100387.16;;;31.80;24.12
69780;BME280;57052;55.602;38.096;2022-08-01T12:44:36;100393.16;;;31.82;23.82
69780;BME280;57052;55.602;38.096;2022-08-01T12:47:04;100377.63;;;31.70;23.58
69780;BME280;57052;55.602;38.096;2022-08-01T12:49:35;100391.63;;;31.74;23.52
69780;BME280;57052;55.602;38.096;2022-08-01T12:52:01;100384.38;;;31.80;24.11
69780;BME280;57052;55.602;38.096;2022-08-01T12:54:27;100378.69;;;31.91;23.98
69780;BME280;57052;55.602;38.096;2022-08-01T12:56:53;100370.25;;;32.01;23.54
69780;BME280;57052;55.602;38.096;2022-08-01T12:59:25;100374.19;;;32.11;23.87
69780;BME280;57052;55.602;38.096;2022-08-01T13:01:52;100367.78;;;32.07;24.24
69780;BME280;57052;55.602;38.096;2022-08-01T13:04:18;100370.22;;;32.08;23.88
69780;BME280;57052;55.602;38.096;2022-08-01T13:06:44;100371.84;;;32.02;23.75
69780;BME280;57052;55.602;38.096;2022-08-01T13:09:10;100369.84;;;31.99;24.21
69780;BME280;57052;55.602;38.096;2022-08-01T13:11:39;100363.84;;;31.97;23.65
69780;BME280;57052;55.602;38.096;2022-08-01T13:14:06;100354.69;;;31.90;23.54
69780;BME280;57052;55.602;38.096;2022-08-01T13:16:32;100355.19;;;31.78;23.48
69780;BME280;57052;55.602;38.096;2022-08-01T13:19:10;100364.81;;;31.77;24.14
69780;BME280;57052;55.602;38.096;2022-08-01T13:21:35;100358.41;;;31.76;23.95
69780;BME280;57052;55.602;38.096;2022-08-01T13:26:41;100356.84;;;31.72;24.01